createdAt,value
2022-11-03T00:01:17.089Z,5.68
2022-11-03T00:06:18.414Z,5.43
2022-11-03T00:11:19.682Z,5.05
2022-11-03T00:16:21.110Z,4.85
2022-11-03T00:21:22.491Z,4.43
2022-11-03T00:26:26.262Z,4.82
2022-11-03T00:31:29.874Z,4.40
2022-11-03T00:36:33.551Z,5.07
2022-11-03T00:41:34.924Z,5.17
2022-11-03T00:46:36.353Z,4.20
2022-11-03T00:51:37.656Z,4.50
2022-11-03T00:56:41.471Z,3.92
2022-11-03T01:01:47.137Z,4.43
2022-11-03T01:06:50.837Z,4.93
2022-11-03T01:12:10.194Z,5.15
2022-11-03T01:17:25.428Z,4.55
2022-11-03T01:22:26.727Z,5.40
2022-11-03T01:27:28.032Z,4.88
2022-11-03T01:32:29.359Z,5.18
2022-11-03T01:37:30.737Z,4.90
2022-11-03T01:42:32.085Z,4.65
2022-11-03T01:47:35.714Z,5.03
2022-11-03T01:52:55.018Z,4.47
2022-11-03T01:58:07.244Z,5.68
2022-11-03T02:03:09.429Z,4.03
2022-11-03T02:08:22.288Z,4.20
2022-11-03T02:13:27.292Z,4.70
2022-11-03T02:18:33.358Z,3.95
2022-11-03T02:23:43.408Z,5.85
2022-11-03T02:28:44.908Z,3.90
2022-11-03T02:33:58.524Z,4.25
2022-11-03T02:39:09.613Z,4.22
2022-11-03T02:44:17.155Z,4.35
2022-11-03T02:49:18.527Z,3.65
2022-11-03T02:54:25.912Z,3.63
2022-11-03T02:59:32.184Z,4.57
2022-11-03T03:04:40.617Z,4.70
2022-11-03T03:09:50.651Z,4.55
2022-11-03T03:14:54.530Z,3.42
2022-11-03T03:20:07.586Z,3.33
2022-11-03T03:25:16.333Z,4.10
2022-11-03T03:30:18.676Z,4.05
2022-11-03T03:35:25.057Z,4.32
2022-11-03T03:40:31.461Z,3.80
2022-11-03T03:45:35.084Z,4.28
2022-11-03T03:50:38.380Z,3.25
2022-11-03T03:55:45.161Z,4.47
2022-11-03T04:00:46.597Z,3.78
2022-11-03T04:05:48.389Z,4.03
2022-11-03T04:11:08.374Z,3.83
2022-11-03T04:16:28.193Z,4.00
2022-11-03T04:21:47.980Z,4.18
2022-11-03T04:26:49.357Z,3.50
2022-11-03T04:31:50.634Z,3.40
2022-11-03T04:36:52.009Z,3.67
2022-11-03T04:41:53.334Z,3.67
2022-11-03T04:46:54.621Z,3.75
2022-11-03T04:51:55.924Z,3.83
2022-11-03T04:56:57.196Z,3.28
2022-11-03T05:01:59.225Z,3.13
2022-11-03T05:07:00.650Z,3.17
2022-11-03T05:12:01.977Z,3.85
2022-11-03T05:17:15.450Z,4.10
2022-11-03T05:22:20.853Z,3.42
2022-11-03T05:27:22.577Z,3.97
2022-11-03T05:32:30.284Z,3.60
2022-11-03T05:37:33.341Z,4.03
2022-11-03T05:42:37.719Z,3.30
2022-11-03T05:47:40.317Z,3.58
2022-11-03T05:52:43.980Z,4.20
2022-11-03T05:57:45.489Z,5.45
2022-11-03T06:02:49.457Z,3.72
2022-11-03T06:07:54.164Z,3.70
2022-11-03T06:12:59.742Z,4.82
2022-11-03T06:18:12.786Z,4.35
2022-11-03T06:23:17.102Z,4.10
2022-11-03T06:28:22.626Z,4.10
2022-11-03T06:33:28.135Z,4.05
2022-11-03T06:38:31.606Z,4.47
2022-11-03T06:43:42.436Z,3.70
2022-11-03T06:48:45.184Z,5.55
2022-11-03T06:53:47.346Z,3.67
2022-11-03T06:58:52.017Z,4.03
2022-11-03T07:09:01.304Z,3.38
2022-11-03T07:14:12.146Z,3.78
2022-11-03T07:19:25.001Z,3.45
2022-11-03T07:24:33.555Z,3.50
2022-11-03T07:29:34.846Z,3.92
2022-11-03T07:34:36.666Z,5.07
2022-11-03T07:39:38.707Z,4.25
2022-11-03T07:44:40.636Z,4.18
2022-11-03T07:49:42.624Z,5.25
2022-11-03T07:54:44.269Z,4.90
2022-11-03T07:59:48.845Z,4.35
2022-11-03T08:09:52.391Z,5.38
2022-11-03T08:14:54.383Z,4.35
2022-11-03T08:19:55.771Z,4.15
2022-11-03T08:24:58.638Z,3.85
2022-11-03T08:30:00.259Z,4.18
2022-11-03T08:35:01.575Z,4.50
2022-11-03T08:40:07.440Z,4.45
2022-11-03T08:45:10.007Z,4.88
2022-11-03T08:50:11.385Z,5.00
2022-11-03T08:55:12.948Z,4.57
2022-11-03T09:00:16.962Z,5.13
2022-11-03T09:05:18.631Z,4.65
2022-11-03T09:10:22.247Z,5.13
2022-11-03T09:15:26.523Z,4.57
2022-11-03T09:20:27.827Z,4.32
2022-11-03T09:25:29.212Z,4.18
2022-11-03T09:30:30.960Z,4.32
2022-11-03T09:35:32.333Z,3.50
2022-11-03T09:40:35.694Z,3.63
2022-11-03T09:45:38.644Z,4.23
2022-11-03T09:50:40.069Z,4.20
2022-11-03T09:55:41.395Z,4.15
2022-11-03T10:00:43.397Z,3.55
2022-11-03T10:05:45.433Z,3.58
2022-11-03T10:10:46.885Z,4.80
2022-11-03T10:15:48.319Z,4.30
2022-11-03T10:20:49.718Z,4.53
2022-11-03T10:25:51.087Z,3.92
2022-11-03T10:31:10.544Z,4.30
2022-11-03T10:36:15.680Z,3.78
2022-11-03T10:41:26.051Z,3.40
2022-11-03T10:51:52.363Z,3.67
2022-11-03T10:56:53.847Z,4.28
2022-11-03T11:01:55.366Z,4.07
2022-11-03T11:06:56.817Z,3.10
2022-11-03T11:11:58.826Z,3.17
2022-11-03T11:17:01.677Z,3.13
2022-11-03T11:22:13.331Z,2.85
2022-11-03T11:27:31.709Z,3.20
2022-11-03T11:32:42.104Z,2.70
2022-11-03T11:37:44.129Z,2.60
2022-11-03T11:43:10.976Z,2.95
2022-11-03T11:48:19.243Z,2.40
2022-11-03T11:53:25.066Z,2.58
2022-11-03T11:58:33.126Z,2.95
2022-11-03T12:08:43.201Z,2.70
2022-11-03T12:13:51.015Z,2.25
2022-11-03T12:18:52.759Z,2.17
2022-11-03T12:23:54.154Z,2.10
2022-11-03T12:28:55.696Z,2.10
2022-11-03T12:33:56.994Z,1.83
2022-11-03T12:38:58.278Z,1.95
2022-11-03T12:43:59.729Z,2.20
2022-11-03T12:49:01.074Z,2.20
2022-11-03T12:54:02.357Z,2.15
2022-11-03T12:59:03.930Z,1.67
2022-11-03T13:04:06.071Z,2.17
2022-11-03T13:09:07.429Z,2.00
2022-11-03T13:14:08.819Z,2.35
2022-11-03T13:19:10.717Z,2.08
2022-11-03T13:24:12.110Z,2.20
2022-11-03T13:29:13.406Z,1.88
2022-11-03T13:34:14.715Z,2.78
2022-11-03T13:39:16.363Z,2.25
2022-11-03T13:44:17.755Z,2.28
2022-11-03T13:50:07.671Z,2.35
2022-11-03T14:00:08.019Z,2.28
2022-11-03T14:05:11.684Z,2.40
2022-11-03T14:10:13.335Z,2.38
2022-11-03T14:15:14.687Z,2.33
2022-11-03T14:20:16.082Z,3.08
2022-11-03T14:25:20.055Z,2.63
2022-11-03T14:30:21.411Z,2.65
2022-11-03T14:35:23.726Z,2.50
2022-11-03T14:40:43.854Z,3.10
2022-11-03T14:45:45.181Z,2.70
2022-11-03T14:50:46.507Z,3.63
2022-11-03T14:55:47.782Z,2.60
2022-11-03T15:00:49.226Z,2.67
2022-11-03T15:05:54.263Z,2.50
2022-11-03T15:10:56.303Z,3.55
2022-11-03T15:15:57.980Z,3.20
2022-11-03T15:20:59.718Z,3.15
2022-11-03T15:26:02.476Z,2.40
2022-11-03T15:31:04.281Z,2.50
2022-11-03T15:36:07.384Z,3.10
2022-11-03T15:41:19.671Z,2.33
2022-11-03T15:46:21.279Z,2.20
2022-11-03T15:51:22.577Z,2.53
2022-11-03T15:56:23.864Z,2.22
2022-11-03T16:01:25.266Z,3.03
2022-11-03T16:06:46.549Z,3.45
2022-11-03T16:11:48.234Z,2.47
2022-11-03T16:16:49.526Z,2.75
2022-11-03T16:21:51.596Z,3.33
2022-11-03T16:26:52.944Z,3.20
2022-11-03T16:31:54.427Z,3.47
2022-11-03T16:36:56.220Z,2.63
2022-11-03T16:41:57.619Z,3.25
2022-11-03T16:46:58.902Z,4.07
2022-11-03T16:52:00.366Z,3.00
2022-11-03T16:57:01.754Z,3.42
2022-11-03T17:02:03.160Z,3.70
2022-11-03T17:07:04.623Z,3.35
2022-11-03T17:12:06.208Z,2.97
2022-11-03T17:17:07.656Z,3.83
2022-11-03T17:22:09.070Z,4.10
2022-11-03T17:27:14.987Z,3.95
2022-11-03T17:32:24.715Z,4.28
2022-11-03T17:37:26.902Z,4.13
2022-11-03T17:42:28.634Z,4.47
2022-11-03T17:47:31.617Z,4.65
2022-11-03T17:52:33.603Z,4.80
2022-11-03T17:57:35.633Z,4.70
2022-11-03T18:02:39.425Z,4.15
2022-11-03T18:07:42.732Z,4.20
2022-11-03T18:13:05.362Z,3.70
2022-11-03T18:18:13.874Z,5.95
2022-11-03T18:23:21.449Z,4.50
2022-11-03T18:28:22.841Z,5.57
2022-11-03T18:33:27.000Z,6.15
2022-11-03T18:38:28.595Z,6.22
2022-11-03T18:43:30.091Z,5.25
2022-11-03T18:48:31.784Z,4.13
2022-11-03T18:53:34.027Z,4.85
2022-11-03T18:58:35.411Z,4.90
2022-11-03T19:03:36.790Z,4.80
2022-11-03T19:08:38.109Z,5.55
2022-11-03T19:13:44.395Z,4.53
2022-11-03T19:18:46.036Z,4.45
2022-11-03T19:23:49.674Z,4.05
2022-11-03T19:29:00.022Z,3.75
2022-11-03T19:34:02.590Z,4.85
2022-11-03T19:39:14.435Z,5.13
2022-11-03T19:44:15.780Z,4.70
2022-11-03T19:49:17.114Z,4.68
2022-11-03T19:54:21.105Z,4.00
2022-11-03T19:59:22.466Z,5.82
2022-11-03T20:04:23.845Z,6.00
2022-11-03T20:19:30.720Z,5.65
2022-11-03T20:24:32.514Z,6.30
2022-11-03T20:29:34.996Z,5.00
2022-11-03T20:34:37.033Z,4.75
2022-11-03T20:39:38.448Z,5.72
2022-11-03T20:44:39.927Z,5.18
2022-11-03T20:49:41.342Z,5.18
2022-11-03T20:54:46.114Z,5.55
2022-11-03T20:59:47.580Z,5.78
2022-11-03T21:04:48.960Z,6.28
2022-11-03T21:09:50.300Z,4.65
2022-11-03T21:15:10.051Z,5.05
2022-11-03T21:20:12.093Z,5.30
2022-11-03T21:25:15.974Z,4.63
2022-11-03T21:30:18.109Z,4.55
2022-11-03T21:35:21.480Z,4.32
2022-11-03T21:40:23.066Z,4.55
2022-11-03T21:45:24.893Z,4.72
2022-11-03T21:50:26.318Z,4.70
2022-11-03T21:55:28.852Z,4.85
2022-11-03T22:00:30.701Z,4.95
2022-11-03T22:05:32.235Z,3.55
2022-11-03T22:10:33.560Z,4.40
2022-11-03T22:15:53.724Z,4.15
2022-11-03T22:21:16.349Z,3.95
2022-11-03T22:26:36.345Z,4.18
2022-11-03T22:31:40.439Z,4.47
2022-11-03T22:36:41.768Z,4.85
2022-11-03T22:42:06.079Z,5.20
2022-11-03T22:47:08.557Z,6.50
2022-11-03T22:52:10.589Z,5.40
2022-11-03T22:57:13.076Z,5.72
2022-11-03T23:02:14.423Z,6.32
2022-11-03T23:07:15.813Z,5.88
2022-11-03T23:12:17.095Z,6.30
2022-11-03T23:17:18.354Z,6.22
2022-11-03T23:22:19.622Z,5.38
2022-11-03T23:27:20.906Z,5.70
2022-11-03T23:32:22.333Z,4.97
2022-11-03T23:37:23.672Z,5.40
2022-11-03T23:42:24.982Z,5.25
2022-11-03T23:47:45.243Z,5.68
2022-11-03T23:52:46.687Z,5.07
2022-11-03T23:58:07.055Z,4.53
